Search for airport 
image banner adimage banner adimage banner ad
image banner ad

EKKV - Klaksvik

Located in Klaksvik, Faroe Islands

ICAO - EKKV, IATA -

Data provided by Airmate  

General information

Coordinates: N62°13'4" W6°34'35"
Elevation is 263 feet MSL.
Magnetic variation is -8.2° East
View others Airports in (unassigned)

Operational data

Special qualification required
Current time UTC:
Current local time:
Weather at : EKVG - Vagar ( 40 km )
METAR: EKVG 191050Z AUTO 21010KT 0550 R12/0650N R30/1100D FG VV003 11/11 Q0992
TAF: TAF EKVG 190817Z 1909/1918 19012KT 5000 -RADZ BR OVC003 TEMPO 1909/1918 0700 DZRA FG OVC001
View NOTAMs / SUP AIP / TFR affecting this airport [VIEW]
Communications frequencies: [VIEW]

Runways:

Airport contact information

Address: Klaksvik Faroe Islands

Satellite view of EKKV